Time;durP1;ratioP1;P1;durP2;ratioP2;P2;SDS_P1;SDS_P2;PMS_P1;PMS_P2;Temp;Humidity;BMP_temperature;BMP_pressure;BME280_temperature;BME280_humidity;BME280_pressure;Samples;Min_cycle;Max_cycle;Signal;HPM_P1;HPM_P2
2022/08/14 00:04:24;;;;;;;9.95;8.82;;;;;;;;;;10341707;28;20520;-71
2022/08/14 00:09:25;;;;;;;11.18;10.02;;;;;;;;;;10359633;28;20038;-72
2022/08/14 00:14:26;;;;;;;11.27;10.10;;;;;;;;;;10350939;28;20055;-72
2022/08/14 00:19:26;;;;;;;10.02;9.02;;;;;;;;;;10351523;28;20359;-71
2022/08/14 00:24:27;;;;;;;10.70;9.60;;;;;;;;;;10349380;28;20046;-70
2022/08/14 00:29:28;;;;;;;10.98;9.88;;;;;;;;;;10359478;28;20275;-71
2022/08/14 00:34:28;;;;;;;10.10;9.20;;;;;;;;;;10329213;28;20087;-71
2022/08/14 00:39:29;;;;;;;11.27;10.03;;;;;;;;;;10357216;28;20054;-72
2022/08/14 00:44:29;;;;;;;12.27;10.43;;;;;;;;;;10355418;28;20275;-71
2022/08/14 00:49:31;;;;;;;11.85;10.75;;;;;;;;;;10350586;28;20694;-71
2022/08/14 00:54:32;;;;;;;10.63;9.63;;;;;;;;;;10351952;28;20054;-70
2022/08/14 00:59:34;;;;;;;11.57;10.48;;;;;;;;;;10354141;28;20273;-71
2022/08/14 01:04:35;;;;;;;11.43;10.27;;;;;;;;;;10357198;28;20085;-71
2022/08/14 01:09:36;;;;;;;12.05;10.77;;;;;;;;;;10325507;28;20100;-72
2022/08/14 01:14:36;;;;;;;11.68;10.57;;;;;;;;;;10358277;28;20054;-70
2022/08/14 01:24:56;;;;;;;12.50;10.18;;;;;;;;;;10361649;28;20304;-72
2022/08/14 01:29:56;;;;;;;11.77;10.57;;;;;;;;;;10362177;28;20054;-72
2022/08/14 01:34:57;;;;;;;11.93;10.73;;;;;;;;;;10360586;28;20054;-70
2022/08/14 01:39:57;;;;;;;11.35;10.25;;;;;;;;;;10361075;28;20056;-72
2022/08/14 01:44:58;;;;;;;11.03;9.93;;;;;;;;;;10359979;28;20042;-72
2022/08/14 01:49:58;;;;;;;9.88;8.90;;;;;;;;;;10342301;28;20054;-74
2022/08/14 01:54:59;;;;;;;10.30;9.17;;;;;;;;;;10355775;28;20489;-70
2022/08/14 01:59:59;;;;;;;9.57;8.68;;;;;;;;;;10356773;28;20285;-71
2022/08/14 02:05:00;;;;;;;10.90;9.07;;;;;;;;;;10335195;28;20053;-72
2022/08/14 02:10:00;;;;;;;12.85;9.52;;;;;;;;;;10360044;28;20291;-73
2022/08/14 02:15:01;;;;;;;10.77;9.67;;;;;;;;;;10359172;28;20129;-72
2022/08/14 02:20:03;;;;;;;10.38;9.27;;;;;;;;;;10341010;28;20041;-73
2022/08/14 02:25:03;;;;;;;9.43;8.52;;;;;;;;;;10351775;28;20042;-72
2022/08/14 02:30:04;;;;;;;9.95;8.95;;;;;;;;;;10352642;28;20478;-70
2022/08/14 02:35:15;;;;;;;10.15;9.15;;;;;;;;;;10354039;28;20046;-73
2022/08/14 02:40:17;;;;;;;10.63;9.52;;;;;;;;;;10349300;28;20050;-72
2022/08/14 02:45:17;;;;;;;9.93;8.93;;;;;;;;;;10354480;28;20064;-72
2022/08/14 02:50:18;;;;;;;10.45;9.45;;;;;;;;;;10322887;28;20041;-71
2022/08/14 02:55:19;;;;;;;11.15;10.00;;;;;;;;;;10357775;28;20130;-71
2022/08/14 03:00:21;;;;;;;9.85;8.85;;;;;;;;;;10357953;28;20037;-72
2022/08/14 03:11:25;;;;;;;10.30;9.27;;;;;;;;;;10350225;28;20481;-71
2022/08/14 03:16:25;;;;;;;11.52;10.32;;;;;;;;;;10352936;28;20041;-71
2022/08/14 03:21:26;;;;;;;12.65;9.82;;;;;;;;;;10348146;28;20050;-72
2022/08/14 03:26:27;;;;;;;11.97;10.37;;;;;;;;;;10355128;28;20390;-71
2022/08/14 03:31:28;;;;;;;11.80;10.60;;;;;;;;;;10372368;28;20269;-72
2022/08/14 03:36:31;;;;;;;10.50;9.40;;;;;;;;;;10344716;28;20052;-71
2022/08/14 03:41:31;;;;;;;;;;;;;;;;;;10357465;28;20485;-72
2022/08/14 03:46:33;;;;;;;11.23;9.88;;;;;;;;;;10354514;28;19921;-71
2022/08/14 03:51:33;;;;;;;11.18;10.18;;;;;;;;;;10353997;28;20057;-71
2022/08/14 03:56:35;;;;;;;11.45;10.25;;;;;;;;;;10349190;28;20076;-71
2022/08/14 04:01:38;;;;;;;12.00;10.27;;;;;;;;;;10354004;28;20544;-71
2022/08/14 04:06:38;;;;;;;11.00;9.90;;;;;;;;;;10331713;28;20069;-70
2022/08/14 04:11:38;;;;;;;13.87;11.57;;;;;;;;;;10351944;28;20141;-71
2022/08/14 04:16:44;;;;;;;12.77;11.43;;;;;;;;;;10321322;28;20050;-71
2022/08/14 04:21:45;;;;;;;12.82;11.50;;;;;;;;;;10353755;28;20315;-70
2022/08/14 04:26:46;;;;;;;13.68;11.82;;;;;;;;;;10356728;28;20112;-71
2022/08/14 04:31:46;;;;;;;12.18;10.93;;;;;;;;;;10333375;28;20428;-71
2022/08/14 04:52:48;;;;;;;14.23;12.73;;;;;;;;;;10351868;28;20512;-75
2022/08/14 04:57:48;;;;;;;14.27;11.70;;;;;;;;;;10358558;28;20045;-73
2022/08/14 05:02:50;;;;;;;13.20;11.90;;;;;;;;;;10361917;28;20038;-71
2022/08/14 05:07:51;;;;;;;14.68;12.38;;;;;;;;;;10362048;28;20296;-70
2022/08/14 05:12:51;;;;;;;13.02;11.65;;;;;;;;;;10343652;28;20054;-69
2022/08/14 05:17:52;;;;;;;13.90;12.50;;;;;;;;;;10356628;28;20061;-69
2022/08/14 05:22:52;;;;;;;13.23;11.77;;;;;;;;;;10342870;28;20049;-70
2022/08/14 05:27:58;;;;;;;14.10;12.70;;;;;;;;;;10357625;28;20058;-70
2022/08/14 05:33:00;;;;;;;13.77;12.38;;;;;;;;;;10356160;28;20097;-71
2022/08/14 05:38:06;;;;;;;13.60;11.95;;;;;;;;;;10350928;28;20050;-70
2022/08/14 05:43:07;;;;;;;12.55;11.27;;;;;;;;;;10358438;28;20105;-70
2022/08/14 05:48:12;;;;;;;13.30;11.90;;;;;;;;;;10344469;28;20168;-69
2022/08/14 05:53:12;;;;;;;12.95;11.60;;;;;;;;;;10343626;28;20520;-70
2022/08/14 05:58:13;;;;;;;13.15;11.60;;;;;;;;;;10340608;28;20092;-69
2022/08/14 06:03:17;;;;;;;13.00;11.70;;;;;;;;;;10358697;28;20041;-70
2022/08/14 06:08:23;;;;;;;12.52;11.27;;;;;;;;;;10357528;28;20464;-71
2022/08/14 06:13:23;;;;;;;13.52;12.05;;;;;;;;;;10330887;28;20486;-69
2022/08/14 06:18:24;;;;;;;13.47;12.07;;;;;;;;;;10355278;28;20049;-70
2022/08/14 06:23:24;;;;;;;14.20;12.75;;;;;;;;;;10331978;28;20058;-68
2022/08/14 06:28:25;;;;;;;12.52;11.32;;;;;;;;;;10359412;28;20155;-68
2022/08/14 06:33:26;;;;;;;13.95;12.38;;;;;;;;;;10360850;28;20580;-70
2022/08/14 06:38:26;;;;;;;11.83;10.63;;;;;;;;;;10358611;28;20077;-72
2022/08/14 06:43:26;;;;;;;12.05;10.85;;;;;;;;;;10358440;28;20052;-69
2022/08/14 06:48:27;;;;;;;10.87;9.77;;;;;;;;;;10360459;28;20092;-71
2022/08/14 06:53:27;;;;;;;10.05;9.05;;;;;;;;;;10359847;28;20131;-70
2022/08/14 06:58:29;;;;;;;10.80;9.70;;;;;;;;;;10351615;28;20042;-72
2022/08/14 07:08:50;;;;;;;11.40;9.43;;;;;;;;;;10355731;28;20046;-71
2022/08/14 07:13:50;;;;;;;9.93;8.93;;;;;;;;;;10348963;28;20160;-70
2022/08/14 07:18:51;;;;;;;8.93;8.13;;;;;;;;;;10362369;28;20054;-72
2022/08/14 07:23:51;;;;;;;9.10;8.13;;;;;;;;;;10345002;28;20033;-70
2022/08/14 07:28:52;;;;;;;9.30;8.07;;;;;;;;;;10357718;28;20053;-69
2022/08/14 07:33:52;;;;;;;7.82;6.95;;;;;;;;;;10359702;28;20529;-73
2022/08/14 07:38:52;;;;;;;7.17;6.47;;;;;;;;;;10355358;28;20043;-72
2022/08/14 07:43:53;;;;;;;6.88;6.07;;;;;;;;;;10337761;28;20684;-71
2022/08/14 07:48:53;;;;;;;6.70;6.00;;;;;;;;;;10326727;28;20045;-71
2022/08/14 07:53:54;;;;;;;6.67;6.07;;;;;;;;;;10332280;28;20077;-71
2022/08/14 07:58:54;;;;;;;6.80;6.20;;;;;;;;;;10340972;28;20092;-71
2022/08/14 08:03:56;;;;;;;6.30;5.70;;;;;;;;;;10341825;28;20049;-72
2022/08/14 08:08:57;;;;;;;6.10;5.53;;;;;;;;;;10357813;28;20277;-72
2022/08/14 08:13:58;;;;;;;5.60;5.10;;;;;;;;;;10352921;28;20140;-73
2022/08/14 08:18:59;;;;;;;6.38;5.22;;;;;;;;;;10360102;28;20050;-71
2022/08/14 08:24:00;;;;;;;6.47;5.88;;;;;;;;;;10361206;28;20053;-71
2022/08/14 08:29:00;;;;;;;6.05;5.53;;;;;;;;;;10345765;28;20038;-71
2022/08/14 08:34:03;;;;;;;7.07;5.85;;;;;;;;;;10361791;28;20050;-74
2022/08/14 08:39:03;;;;;;;9.63;6.65;;;;;;;;;;10360615;28;20053;-73
2022/08/14 08:44:03;;;;;;;6.30;5.70;;;;;;;;;;10362751;28;20060;-71
2022/08/14 08:49:05;;;;;;;6.43;5.20;;;;;;;;;;10362083;28;20042;-71
2022/08/14 08:54:08;;;;;;;7.97;5.10;;;;;;;;;;10362836;28;20496;-72
2022/08/14 08:59:16;;;;;;;5.78;5.05;;;;;;;;;;10333682;28;20050;-71
2022/08/14 09:04:17;;;;;;;5.50;5.00;;;;;;;;;;10348967;28;20046;-73
2022/08/14 09:09:18;;;;;;;5.70;5.13;;;;;;;;;;10349964;28;20083;-75
2022/08/14 09:14:20;;;;;;;5.97;5.28;;;;;;;;;;10337415;28;20082;-71
2022/08/14 09:19:20;;;;;;;5.25;4.72;;;;;;;;;;10354352;28;20466;-73
2022/08/14 09:24:20;;;;;;;5.17;4.67;;;;;;;;;;10359154;28;20072;-73
2022/08/14 09:29:21;;;;;;;6.10;5.50;;;;;;;;;;10364809;28;20046;-73
2022/08/14 09:34:40;;;;;;;5.87;5.17;;;;;;;;;;10361653;28;20077;-71
2022/08/14 09:39:53;;;;;;;5.60;5.10;;;;;;;;;;10357535;28;20046;-70
2022/08/14 09:45:12;;;;;;;4.78;4.38;;;;;;;;;;10366139;28;20096;-72
2022/08/14 09:50:17;;;;;;;5.30;4.80;;;;;;;;;;10371692;28;20536;-74
2022/08/14 09:55:19;;;;;;;5.57;5.05;;;;;;;;;;10365159;28;20068;-72
2022/08/14 10:00:33;;;;;;;5.18;4.72;;;;;;;;;;10353310;28;20042;-73
2022/08/14 10:05:35;;;;;;;5.97;4.93;;;;;;;;;;10340773;28;20050;-73
2022/08/14 10:10:39;;;;;;;5.43;4.88;;;;;;;;;;10364764;28;20073;-70
2022/08/14 10:15:44;;;;;;;5.20;4.70;;;;;;;;;;10369048;28;20081;-72
2022/08/14 10:20:54;;;;;;;6.20;5.57;;;;;;;;;;10368280;28;20041;-76
2022/08/14 10:26:04;;;;;;;5.88;5.38;;;;;;;;;;10356466;28;20046;-72
2022/08/14 10:31:14;;;;;;;7.82;5.80;;;;;;;;;;10351282;28;20057;-73
2022/08/14 10:36:24;;;;;;;5.70;5.20;;;;;;;;;;10349346;28;20038;-73
2022/08/14 10:41:36;;;;;;;6.30;5.60;;;;;;;;;;10339815;28;20502;-73
2022/08/14 10:46:57;;;;;;;7.10;6.38;;;;;;;;;;10324005;28;20163;-74
2022/08/14 10:52:04;;;;;;;6.00;5.40;;;;;;;;;;10343302;28;20552;-74
2022/08/14 10:57:17;;;;;;;6.47;5.88;;;;;;;;;;10357320;28;20057;-74
2022/08/14 11:02:22;;;;;;;5.68;4.78;;;;;;;;;;10357633;28;20072;-73
2022/08/14 11:07:22;;;;;;;5.72;5.20;;;;;;;;;;10344929;28;20056;-74
2022/08/14 11:12:25;;;;;;;6.47;5.87;;;;;;;;;;10342879;28;20049;-75
2022/08/14 11:17:26;;;;;;;6.00;5.40;;;;;;;;;;10353879;28;20052;-74
2022/08/14 11:22:26;;;;;;;;;;;;;;;;;;10322236;28;20038;-74
2022/08/14 11:27:28;;;;;;;5.97;5.03;;;;;;;;;;10330334;28;19924;-75
2022/08/14 11:32:29;;;;;;;6.10;5.50;;;;;;;;;;10357332;28;20046;-75
2022/08/14 11:37:33;;;;;;;6.50;5.25;;;;;;;;;;10358183;28;20073;-75
2022/08/14 11:42:35;;;;;;;;;;;;;;;;;;10362785;28;20116;-74
2022/08/14 11:47:36;;;;;;;5.60;5.10;;;;;;;;;;10357047;28;19928;-74
2022/08/14 11:52:37;;;;;;;;;;;;;;;;;;10355456;28;20104;-73
2022/08/14 11:57:38;;;;;;;5.83;5.33;;;;;;;;;;10359819;28;19964;-77
2022/08/14 12:02:49;;;;;;;5.65;5.15;;;;;;;;;;10363299;28;20309;-74
2022/08/14 12:07:49;;;;;;;6.95;6.22;;;;;;;;;;10354945;28;20050;-74
2022/08/14 12:12:53;;;;;;;6.32;5.72;;;;;;;;;;10357597;28;20112;-75
2022/08/14 12:17:54;;;;;;;6.30;5.70;;;;;;;;;;10353554;28;20050;-73
2022/08/14 12:22:54;;;;;;;6.40;5.90;;;;;;;;;;10338871;28;20696;-72
2022/08/14 12:27:57;;;;;;;7.00;6.30;;;;;;;;;;10358237;28;20045;-74
2022/08/14 12:32:59;;;;;;;6.38;5.78;;;;;;;;;;10337499;28;20050;-74
2022/08/14 12:37:59;;;;;;;6.53;5.75;;;;;;;;;;10343979;28;20042;-74
2022/08/14 12:43:02;;;;;;;6.70;5.83;;;;;;;;;;10353359;28;20037;-72
2022/08/14 12:48:03;;;;;;;6.00;5.40;;;;;;;;;;10355192;28;20042;-72
2022/08/14 12:53:04;;;;;;;5.80;4.90;;;;;;;;;;10354291;28;20050;-74
2022/08/14 12:58:04;;;;;;;;;;;;;;;;;;10349679;28;20038;-75
2022/08/14 13:03:04;;;;;;;6.28;4.93;;;;;;;;;;10353556;28;20315;-73
2022/08/14 13:08:05;;;;;;;;;;;;;;;;;;10361808;28;20630;-72
2022/08/14 13:13:08;;;;;;;6.18;5.35;;;;;;;;;;10360989;28;19929;-72
2022/08/14 13:18:10;;;;;;;6.00;5.20;;;;;;;;;;10350689;28;20056;-72
2022/08/14 13:23:13;;;;;;;6.15;5.50;;;;;;;;;;10331294;28;20056;-73
2022/08/14 13:28:14;;;;;;;7.53;6.07;;;;;;;;;;10344047;28;20048;-70
2022/08/14 13:33:14;;;;;;;;;;;;;;;;;;10364458;28;20045;-72
2022/08/14 13:38:20;;;;;;;5.70;5.20;;;;;;;;;;10361674;28;20048;-70
2022/08/14 13:43:23;;;;;;;5.82;5.32;;;;;;;;;;10360134;28;20057;-71
2022/08/14 13:48:23;;;;;;;6.70;5.53;;;;;;;;;;10362923;28;20393;-73
2022/08/14 13:53:23;;;;;;;;;;;;;;;;;;10359894;28;20057;-71
2022/08/14 13:58:24;;;;;;;6.63;5.55;;;;;;;;;;10360544;28;21302;-71
2022/08/14 14:03:25;;;;;;;;;;;;;;;;;;10358370;28;20038;-72
2022/08/14 14:08:25;;;;;;;4.80;4.40;;;;;;;;;;10358234;28;19913;-77
2022/08/14 14:13:26;;;;;;;5.30;4.80;;;;;;;;;;10336996;28;20066;-73
2022/08/14 14:18:26;;;;;;;;;;;;;;;;;;10350478;28;20480;-71
2022/08/14 14:23:27;;;;;;;5.80;5.15;;;;;;;;;;10351298;28;20009;-72
2022/08/14 14:28:27;;;;;;;;;;;;;;;;;;10334933;28;20381;-72
2022/08/14 14:33:29;;;;;;;5.82;5.18;;;;;;;;;;10362728;28;19929;-72
2022/08/14 14:38:31;;;;;;;5.70;5.03;;;;;;;;;;10357406;28;20867;-75
2022/08/14 14:43:34;;;;;;;5.70;5.20;;;;;;;;;;10329850;28;20049;-73
2022/08/14 14:48:37;;;;;;;5.10;4.60;;;;;;;;;;10358178;28;20124;-72
2022/08/14 14:53:38;;;;;;;5.40;4.90;;;;;;;;;;10362662;28;20080;-74
2022/08/14 14:58:40;;;;;;;5.53;5.03;;;;;;;;;;10351728;28;20081;-72
2022/08/14 15:03:44;;;;;;;5.13;4.72;;;;;;;;;;10354915;28;20126;-74
2022/08/14 15:08:45;;;;;;;6.50;5.15;;;;;;;;;;10352000;28;20046;-73
2022/08/14 15:13:46;;;;;;;5.93;5.32;;;;;;;;;;10354098;28;20448;-77
2022/08/14 15:18:46;;;;;;;5.60;5.10;;;;;;;;;;10357139;28;20062;-76
2022/08/14 15:23:46;;;;;;;;;;;;;;;;;;10361063;28;20065;-73
2022/08/14 15:28:47;;;;;;;6.07;5.47;;;;;;;;;;10344157;28;19917;-73
2022/08/14 15:39:06;;;;;;;5.70;5.00;;;;;;;;;;10358453;28;19917;-74
2022/08/14 15:44:09;;;;;;;4.80;4.27;;;;;;;;;;10353617;28;20492;-73
2022/08/14 15:49:11;;;;;;;5.10;4.60;;;;;;;;;;10357476;28;20056;-73
2022/08/14 15:54:11;;;;;;;5.28;4.78;;;;;;;;;;10358787;28;20041;-74
2022/08/14 15:59:12;;;;;;;4.80;4.33;;;;;;;;;;10355269;28;20661;-73
2022/08/14 16:04:12;;;;;;;5.97;5.37;;;;;;;;;;10357259;28;20513;-73
2022/08/14 16:09:12;;;;;;;5.20;4.70;;;;;;;;;;10353311;28;20121;-72
2022/08/14 16:14:13;;;;;;;6.50;5.90;;;;;;;;;;10335702;28;20074;-72
2022/08/14 16:19:16;;;;;;;7.60;5.73;;;;;;;;;;10354421;28;20046;-73
2022/08/14 16:24:17;;;;;;;5.30;4.80;;;;;;;;;;10335520;28;20045;-72
2022/08/14 16:29:18;;;;;;;6.00;5.40;;;;;;;;;;10340616;28;20037;-72
2022/08/14 16:34:19;;;;;;;5.70;5.20;;;;;;;;;;10341245;28;20046;-73
2022/08/14 16:39:21;;;;;;;19.23;17.15;;;;;;;;;;10344710;28;20281;-71
2022/08/14 16:44:23;;;;;;;5.95;5.43;;;;;;;;;;10341424;28;20045;-70
2022/08/14 16:49:24;;;;;;;5.72;5.13;;;;;;;;;;10357819;28;20034;-70
2022/08/14 16:54:25;;;;;;;5.68;5.13;;;;;;;;;;10345980;28;20401;-74
2022/08/14 16:59:26;;;;;;;5.75;5.25;;;;;;;;;;10354788;28;20042;-72
2022/08/14 17:04:28;;;;;;;5.17;4.67;;;;;;;;;;10363696;28;20049;-71
2022/08/14 17:09:43;;;;;;;5.50;5.00;;;;;;;;;;10364349;28;20046;-71
2022/08/14 17:14:49;;;;;;;6.80;6.03;;;;;;;;;;10363144;28;20066;-69
2022/08/14 17:20:03;;;;;;;5.43;5.03;;;;;;;;;;10364191;28;20054;-72
2022/08/14 17:25:04;;;;;;;5.90;5.30;;;;;;;;;;10352379;28;20092;-71
2022/08/14 17:30:07;;;;;;;6.70;5.60;;;;;;;;;;10365352;28;20069;-72
2022/08/14 17:35:10;;;;;;;5.90;5.40;;;;;;;;;;10364901;28;20366;-70
2022/08/14 17:40:13;;;;;;;5.80;5.18;;;;;;;;;;10348682;28;20050;-71
2022/08/14 17:45:14;;;;;;;6.88;5.72;;;;;;;;;;10363993;28;20061;-72
2022/08/14 17:50:15;;;;;;;8.02;6.70;;;;;;;;;;10349516;28;20122;-72
2022/08/14 17:55:15;;;;;;;6.50;5.90;;;;;;;;;;10364822;28;20066;-73
2022/08/14 18:00:16;;;;;;;5.70;5.20;;;;;;;;;;10351581;28;20038;-72
2022/08/14 18:05:17;;;;;;;7.73;5.50;;;;;;;;;;10364170;28;20801;-72
2022/08/14 18:10:17;;;;;;;6.10;5.50;;;;;;;;;;10353043;28;20050;-72
2022/08/14 18:15:18;;;;;;;6.37;5.20;;;;;;;;;;10361360;28;20058;-73
2022/08/14 18:20:18;;;;;;;6.30;5.20;;;;;;;;;;10331918;28;20171;-75
2022/08/14 18:25:19;;;;;;;5.80;5.30;;;;;;;;;;10345247;28;20191;-70
2022/08/14 18:30:21;;;;;;;6.80;5.83;;;;;;;;;;10353020;28;20034;-75
2022/08/14 18:35:22;;;;;;;6.25;5.65;;;;;;;;;;10358783;28;20050;-72
2022/08/14 18:40:28;;;;;;;7.10;6.40;;;;;;;;;;10353378;28;20121;-71
2022/08/14 18:45:30;;;;;;;10.32;6.88;;;;;;;;;;10358256;28;20046;-72
2022/08/14 18:50:31;;;;;;;8.27;7.47;;;;;;;;;;10350842;28;20490;-73
2022/08/14 18:55:34;;;;;;;7.28;6.47;;;;;;;;;;10319334;28;20054;-73
2022/08/14 19:00:42;;;;;;;7.50;6.30;;;;;;;;;;10332298;28;20065;-74
2022/08/14 19:05:48;;;;;;;6.70;6.07;;;;;;;;;;10351815;28;20414;-75
2022/08/14 19:10:49;;;;;;;8.02;7.15;;;;;;;;;;10326484;28;20188;-73
2022/08/14 19:15:50;;;;;;;;;;;;;;;;;;10344168;28;20057;-72
2022/08/14 19:20:55;;;;;;;7.32;6.60;;;;;;;;;;10367673;28;20438;-73
2022/08/14 19:25:57;;;;;;;7.45;6.15;;;;;;;;;;10369421;28;20061;-74
2022/08/14 19:31:16;;;;;;;6.93;6.22;;;;;;;;;;10360251;28;20127;-75
2022/08/14 19:36:18;;;;;;;7.10;6.40;;;;;;;;;;10335945;28;20054;-74
2022/08/14 19:41:20;;;;;;;7.35;6.65;;;;;;;;;;10354616;28;20052;-75
2022/08/14 19:46:21;;;;;;;6.70;6.00;;;;;;;;;;10356211;28;20813;-73
2022/08/14 19:51:22;;;;;;;7.40;6.70;;;;;;;;;;10332521;28;20089;-73
2022/08/14 19:56:23;;;;;;;7.10;6.50;;;;;;;;;;10354188;28;20116;-76
2022/08/14 20:01:25;;;;;;;7.93;7.00;;;;;;;;;;10354696;28;20057;-73
2022/08/14 20:06:25;;;;;;;;;;;;;;;;;;10353651;28;20089;-73
2022/08/14 20:11:27;;;;;;;8.18;7.40;;;;;;;;;;10352736;28;20435;-74
2022/08/14 20:16:28;;;;;;;;;;;;;;;;;;10352921;28;20049;-71
2022/08/14 20:21:28;;;;;;;20.33;18.23;;;;;;;;;;10352015;28;19933;-73
2022/08/14 20:26:31;;;;;;;11.05;9.95;;;;;;;;;;10347797;28;20257;-73
2022/08/14 20:31:31;;;;;;;8.00;7.20;;;;;;;;;;10340983;28;20392;-73
2022/08/14 20:36:36;;;;;;;8.43;7.50;;;;;;;;;;10369589;28;20044;-73
2022/08/14 20:41:41;;;;;;;7.80;7.03;;;;;;;;;;10368112;28;20505;-72
2022/08/14 20:46:42;;;;;;;7.00;6.30;;;;;;;;;;10355996;28;20109;-75
2022/08/14 20:51:50;;;;;;;6.93;6.22;;;;;;;;;;10362917;28;20052;-75
2022/08/14 20:56:52;;;;;;;7.40;6.70;;;;;;;;;;10353680;28;20438;-75
2022/08/14 21:01:57;;;;;;;8.13;7.40;;;;;;;;;;10373915;28;20128;-74
2022/08/14 21:07:01;;;;;;;6.88;6.22;;;;;;;;;;10385144;28;20042;-74
2022/08/14 21:12:02;;;;;;;10.07;8.93;;;;;;;;;;10374073;28;20781;-73
2022/08/14 21:17:04;;;;;;;8.77;7.87;;;;;;;;;;10372993;28;20073;-73
2022/08/14 21:22:05;;;;;;;8.77;7.88;;;;;;;;;;10369609;28;20647;-74
2022/08/14 21:27:09;;;;;;;7.50;6.80;;;;;;;;;;10368317;28;20050;-74
2022/08/14 21:32:31;;;;;;;7.47;6.78;;;;;;;;;;10362180;28;20502;-75
2022/08/14 21:37:31;;;;;;;6.88;6.22;;;;;;;;;;10367486;28;20043;-74
2022/08/14 21:42:32;;;;;;;7.37;6.63;;;;;;;;;;10370034;28;20038;-76
2022/08/14 21:47:33;;;;;;;7.35;6.60;;;;;;;;;;10348910;28;20277;-74
2022/08/14 21:52:34;;;;;;;7.28;6.57;;;;;;;;;;10356385;28;21247;-73
2022/08/14 21:57:42;;;;;;;9.65;7.30;;;;;;;;;;10367493;28;20464;-73
2022/08/14 22:02:43;;;;;;;8.75;7.57;;;;;;;;;;10372214;28;20046;-73
2022/08/14 22:07:44;;;;;;;8.13;7.25;;;;;;;;;;10349170;28;20117;-72
2022/08/14 22:12:45;;;;;;;7.33;6.63;;;;;;;;;;10361836;28;20123;-73
2022/08/14 22:17:46;;;;;;;7.68;6.88;;;;;;;;;;10354823;28;20127;-72
2022/08/14 22:22:46;;;;;;;7.67;6.97;;;;;;;;;;10345622;28;20052;-73
2022/08/14 22:27:49;;;;;;;7.23;6.23;;;;;;;;;;10336105;28;20351;-73
2022/08/14 22:32:52;;;;;;;7.90;7.18;;;;;;;;;;10350902;28;20289;-74
2022/08/14 22:37:55;;;;;;;8.65;7.40;;;;;;;;;;10358945;28;20133;-73
2022/08/14 22:42:56;;;;;;;7.57;6.78;;;;;;;;;;10344735;28;20034;-74
2022/08/14 22:47:57;;;;;;;7.50;6.80;;;;;;;;;;10361565;28;20045;-76
2022/08/14 22:52:58;;;;;;;7.57;6.88;;;;;;;;;;10350840;28;20053;-74
2022/08/14 22:57:59;;;;;;;8.90;8.00;;;;;;;;;;10345431;28;20094;-74
2022/08/14 23:03:03;;;;;;;8.00;7.13;;;;;;;;;;10337660;28;20748;-72
2022/08/14 23:08:06;;;;;;;7.30;6.60;;;;;;;;;;10359790;28;20461;-73
2022/08/14 23:13:06;;;;;;;7.53;6.80;;;;;;;;;;10321650;28;20412;-73
2022/08/14 23:18:08;;;;;;;8.00;6.87;;;;;;;;;;10335821;28;20062;-72
2022/08/14 23:23:12;;;;;;;8.17;7.37;;;;;;;;;;10351563;28;20489;-72
2022/08/14 23:28:15;;;;;;;8.02;7.13;;;;;;;;;;10346703;28;20042;-74
2022/08/14 23:33:19;;;;;;;7.88;7.07;;;;;;;;;;10356883;28;20494;-73
2022/08/14 23:38:20;;;;;;;7.57;6.88;;;;;;;;;;10347649;28;20077;-72
2022/08/14 23:43:21;;;;;;;9.68;7.18;;;;;;;;;;10351019;28;20583;-73
2022/08/14 23:48:22;;;;;;;9.13;7.23;;;;;;;;;;10357400;28;20152;-73
2022/08/14 23:53:28;;;;;;;7.90;7.10;;;;;;;;;;10351314;28;20054;-75
2022/08/14 23:58:29;;;;;;;8.45;6.82;;;;;;;;;;10341054;28;20457;-72
